Pioche, Nevada Weather observations

Data are for observation ending at time listed.
 Day   Time    Ave.   Ave.  Ave.  Vector   Max.   Stn.    Total    Solar   Ave.  
  of    of     Air    Rel.  Wind   Wind    Wind   Baro.  Precip.   Rad.    Soil  
Year   Day     Temp.  Hum.  Speed  Dir.    Gust   Pres.                    Temp. 
2014   (PST)    F      %     mph   deg.    mph     mb.     in.     W/m2     F   
------------------------------------------------------------------------------
 202   11:00   80.0    22    8.2   144     18.9   824.4    0.00    1038    78.5
 202   11:10   79.8    22    8.5   122     18.0   824.3    0.00    1047    78.6
 202   11:20   79.9    22   10.5   126     23.2   824.3    0.00    1054    78.7
 202   11:30   80.2    22   10.0   126     22.4   824.2    0.00    1057    78.8
 202   11:40   80.8    20   11.5   102     21.8   824.2    0.00    1057    78.9
 202   11:50   80.7    21   11.3    98     22.6   824.1    0.00    1056    79.0
 202   12:00   81.5    20   10.8   124     25.4   824.1    0.00    1050    79.2
 202   12:10   81.6    20    7.4   139     13.4   824.1    0.00    1056    79.3
 202   12:20   82.2    19    9.3   100     17.0   824.0    0.00    1046    79.4
 202   12:30   82.0    18    7.9   105     21.7   824.0    0.00    1034    79.6
 202   12:40   82.4    18   10.9   111     21.3   823.9    0.00    1026    79.8
 202   12:50   83.1    18    7.4   134     13.4   823.9    0.00    1020    79.9
 202   13:00   83.1    17   10.2   137     22.6   823.9    0.00    1012    80.1
 202   13:10   82.8    18    7.8   142     17.5   823.9    0.00     996    80.2
 202   13:20   83.4    17    9.8   116     26.7   823.8    0.00     979    80.4
 202   13:30   83.2    17    9.2   132     22.5   823.8    0.00     964    80.6
 202   13:40   83.5    17    7.1   139     19.5   823.8    0.00     947    80.7
 202   13:50   83.9    16    8.6   131     17.1   823.7    0.00     927    80.9
 202   14:00   84.1    15    8.9   116     18.5   823.6    0.00     908    81.1
 202   14:10   84.5    15    8.1   142     21.0   823.6    0.00     891    81.3
 202   14:20   83.7    15    7.8   144     15.5   823.7    0.00     865    81.5
 202   14:30   83.9    15   10.3   132     23.0   823.7    0.00     843    81.7
 202   14:40   84.2    14   11.3   125     21.4   823.6    0.00     818    81.9
 202   14:50   83.9    14   10.5   109     18.6   823.6    0.00     789    82.1
 202   15:00   84.2    14    8.8   135     16.0   823.5    0.00     761    82.3
 202   15:10   84.3    14    7.5   138     17.4   823.4    0.00     729    82.5
 202   15:20   84.7    14   10.9   114     21.3   823.4    0.00     700    82.7
 202   15:30   84.3    13   12.3   129     22.5   823.4    0.00     671    82.9
 202   15:40   84.0    13    9.0   130     18.9   823.4    0.00     639    83.1
 202   15:50   84.1    13    6.9   127     14.0   823.4    0.00     605    83.2
 202   16:00   84.0    13    9.0    98     16.7   823.3    0.00     571    83.4
 202   16:10   84.2    13    8.0   126     15.1   823.3    0.00     535    83.6
 202   16:20   83.8    13    7.6   113     16.1   823.1    0.00     504    83.8
 202   16:30   83.4    13   10.0   137     16.6   823.1    0.00     427    83.9
 202   16:40   83.0    13    7.8   130     16.2   823.2    0.00     330    84.0
 202   16:50   83.5    13    8.2   108     15.1   823.1    0.00     368    84.1
 202   17:00   83.2    14    9.7   102     21.0   823.1    0.00     362    84.3
 202   17:10   83.2    14    6.8   121     18.0   823.1    0.00     326    84.3
 202   17:20   83.3    14    9.4   120     18.8   823.2    0.00     291    84.4
 202   17:30   82.8    14    8.9   129     16.6   823.2    0.00     254    84.5
 202   17:40   82.8    14    7.3   139     13.4   823.3    0.00     220    84.5
 202   17:50   82.2    15    6.0   148     12.8   823.4    0.00     188    84.5
 202   18:00   82.3    14    7.6   125     14.2   823.4    0.00     156    84.5
 202   18:10   81.8    15    6.4   143     13.7   823.4    0.00     124    84.6
 202   18:20   81.3    16    5.6   133     10.1   823.4    0.00      87    84.6
 202   18:30   80.9    16    6.7   117     15.2   823.4    0.00      52    84.6
 202   18:40   80.4    16    5.9   129     11.8   823.4    0.00      17    84.7
 202   18:50   79.7    17    8.1   146     15.1   823.5    0.00       8    84.7
 202   19:00   79.2    17    7.2   144     12.4   823.5    0.00       4    84.7
 202   19:10   78.9    18    6.5   145     12.7   823.4    0.00       1    84.7
 202   19:20   78.5    18    5.3   139     12.9   823.6    0.00       0    84.7
 202   19:30   78.1    18    5.7   141     10.7   823.6    0.00       0    84.7
 202   19:40   77.6    19    4.3   130      9.6   823.7    0.00       0    84.7
 202   19:50   76.7    20    2.6   148      5.8   823.7    0.00       0    84.7
 202   20:00   76.4    20    3.4   140      7.2   823.8    0.00       0    84.6
 202   20:10   75.7    21    3.5   157      7.1   823.9    0.00       0    84.6
 202   20:20   75.6    21    4.3   150      6.2   824.0    0.00       0    84.5
 202   20:30   76.0    21    4.4   157      7.5   824.1    0.00       0    84.5
 202   20:40   75.5    21    4.3   142      7.8   824.2    0.00       0    84.4
 202   20:50   75.1    22    4.4   149      8.0   824.3    0.00       0    84.3
 202   21:00   74.9    21    4.0   137      6.8   824.4    0.00       0    84.2
 202   21:10   74.2    22    3.8   146      7.4   824.5    0.00       0    84.1
 202   21:20   73.2    23    2.8   158      4.7   824.5    0.00       0    84.0
 202   21:30   73.1    22    3.4   158      6.0   824.5    0.00       0    84.0
 202   21:40   72.3    22    3.8   147      7.8   824.5    0.00       0    83.9
 202   21:50   71.7    22    4.5   145      6.2   824.5    0.00       0    83.8
 202   22:00   71.8    22    4.6   147      6.0   824.6    0.00       0    83.8
 202   22:10   71.9    22    5.0   145      7.8   824.6    0.00       0    83.7
 202   22:20   72.7    20    5.7   145      9.0   824.6    0.00       0    83.6
 202   22:30   72.7    20    5.4   145      8.5   824.5    0.00       0    83.5
 202   22:40   72.6    20    4.5   148      8.2   824.6    0.00       0    83.4
 202   22:50   72.2    20    4.5   146      7.2   824.6    0.00       0    83.2
 202   23:00   71.8    20    4.4   144      6.1   824.6    0.00       0    83.2
 202   23:10   71.7    20    3.9   143      5.9   824.6    0.00       0    83.0
 202   23:20   72.4    20    3.6   145      9.9   824.6    0.00       0    83.0
 202   23:30   72.1    20    3.0   140      5.7   824.6    0.00       0    82.8
 202   23:40   72.0    20    3.5   133      7.2   824.5    0.00       0    82.8
 202   23:50   71.8    20    3.4   136      5.8   824.5    0.00       0    82.7
 203    0:00   71.4    21    2.6   150      4.7   824.6    0.00       0    82.6
 203    0:10   69.8    26    2.2   147      3.9   824.6    0.00       0    82.5
 203    0:20   67.7    27    2.1   131      3.4   824.6    0.00       0    82.4
 203    0:30   67.5    23    2.6    72      5.0   824.6    0.00       0    82.3
 203    0:40   67.1    25    2.5    93      4.7   824.6    0.00       0    82.2
 203    0:50   63.0    41    1.4   178      5.6   824.6    0.00       0    82.1
 203    1:00   65.9    29    2.9   146      5.9   824.6    0.00       0    82.0
 203    1:10   67.1    25    1.5   357      4.2   824.8    0.00       0    81.9
 203    1:20   65.2    27    0.5   318      1.9   824.8    0.00       0    81.8
 203    1:30   63.4    29    0.4   305      1.8   824.8    0.00       0    81.7
 203    1:40   62.9    28    0.5   226      2.1   824.8    0.00       0    81.6
 203    1:50   63.1    29    0.6   195      2.6   824.9    0.00       0    81.5
 203    2:00   62.9    29    1.4   158      3.1   825.0    0.00       0    81.4
 203    2:10   63.4    27    1.8   147      2.9   825.0    0.00       0    81.3
 203    2:20   63.2    26    3.3   151      5.6   825.0    0.00       0    81.2
 203    2:30   63.1    26    3.0   148      4.3   824.9    0.00       0    81.1
 203    2:40   62.9    26    3.1   153      5.2   825.0    0.00       0    81.0
 203    2:50   62.8    25    3.7   148      5.4   825.1    0.00       0    80.9
 203    3:00   62.8    25    3.0   149      4.7   825.2    0.00       0    80.8
 203    3:10   63.3    24    3.1   135      5.0   825.2    0.00       0    80.7
 203    3:20   63.3    24    1.9   134      3.9   825.3    0.00       0    80.6
 203    3:30   62.9    25    1.6   132      3.1   825.3    0.00       0    80.5
 203    3:40   62.2    26    2.0   148      4.7   825.3    0.00       0    80.4
 203    3:50   61.7    25    3.6   155      5.3   825.3    0.00       0    80.3
 203    4:00   61.3    26    3.6   155      5.6   825.3    0.00       0    80.2
 203    4:10   61.2    26    3.7   146      5.4   825.4    0.00       0    80.1
 203    4:20   61.0    26    4.0   144      6.2   825.4    0.00       0    80.0
 203    4:30   61.6    25    4.2   142      6.4   825.5    0.00       2    79.9
 203    4:40   61.4    25    5.0   146      6.2   825.6    0.00       4    79.8
 203    4:50   61.4    25    5.8   145      6.9   825.7    0.00       9    79.7
 203    5:00   62.0    24    4.1   144      5.5   825.7    0.00      12    79.6
 203    5:10   62.6    24    2.8   137      3.7   825.7    0.00      12    79.5
 203    5:20   63.7    23    2.8   137      4.0   825.8    0.00      13    79.4
 203    5:30   64.4    23    1.7   128      3.2   825.8    0.00      16    79.3
 203    5:40   64.7    26    0.1    82      1.4   825.8    0.00      16    79.2
 203    5:50   64.2    27    0.5    82      2.3   825.8    0.00      18    79.1
 203    6:00   66.0    25    1.2    70      2.4   825.9    0.00      33    79.0
 203    6:10   65.0    26    1.0    65      3.2   826.1    0.00     276    78.9
 203    6:20   66.3    24    0.2    34      1.4   826.3    0.00     314    78.8
 203    6:30   68.7    21    0.3     3      1.3   826.4    0.00     352    78.8
 203    6:40   70.4    20    0.3     3      1.1   826.5    0.00     390    78.7
 203    6:50   72.3    19    0.8   331      2.7   826.5    0.00     427    78.6
 203    7:00   73.3    18    0.6   342      4.7   826.6    0.00     465    78.6
 203    7:10   73.5    17    1.4    69      4.7   826.7    0.00     498    78.5
 203    7:20   73.9    17    1.1    76      3.7   826.8    0.00     532    78.4
 203    7:30   75.5    16    1.2    82      3.1   826.8    0.00     568    78.3
 203    7:40   77.4    15    0.7    74      3.7   826.6    0.00     601    78.3
 203    7:50   79.2    14    0.8    91      4.4   826.7    0.00     635    78.2
 203    8:00   79.1    15    3.8    99     12.9   826.7    0.00     667    78.2
 203    8:10   78.4    15    5.9   123     12.4   826.7    0.00     699    78.1
 203    8:20   78.9    15    3.7   128      8.6   826.7    0.00     730    78.0
 203    8:30   79.7    15    6.4   114     11.5   826.7    0.00     761    78.0
 203    8:40   80.3    14    6.1   106     11.0   826.7    0.00     790    78.0
 203    8:50   80.6    14    4.1   110     11.5   826.7    0.00     820    78.0
 203    9:00   80.5    14    5.3   141     12.1   826.7    0.00     848    77.9
 203    9:10   80.2    14    6.3   123     13.8   826.7    0.00     875    77.9
 203    9:20   80.9    14    8.2   112     15.0   826.7    0.00     898    77.9
 203    9:30   81.0    14    6.7   113     14.7   826.7    0.00     921    77.9
 203    9:40   81.4    14    7.0   144     17.3   826.7    0.00     941    77.9
 203    9:50   81.6    14    8.1   140     14.2   826.7    0.00     960    78.0
 203   10:00   82.5    13    8.2   115     21.1   826.5    0.00     983    78.0
 203   10:10   82.9    13    6.8   154     13.3   826.6    0.00    1000    78.0
 203   10:20   83.6    12    7.5   124     15.4   826.5    0.00    1015    78.1
 203   10:30   83.5    12    9.1   138     18.9   826.4    0.00    1030    78.2
 203   10:40   84.2    12    7.4   144     17.8   826.4    0.00    1046    78.2
 203   10:50   84.5    11   10.2   118     17.3   826.3    0.00    1053    78.3

Return to Pioche, Nevada graphs page.


Western Regional Climate Center,wrcc@dri.edu